Terminal Aerodrome Forecast
Issued by NWS

Home | Current Version | Previous Version | Text Only | Print | Product List | Glossary On
Versions: 1 2 3 4 5 6 7 8 9 10 11 12 13 14 15 16 17 18 19 20 21 22 23 24 25 26 27 28 29 30 31 32 33
000
FTUS45 KLKN 302000 AAA
TAFTPH
TAF AMD
KTPH 302009Z 3020/3118 36010G20KT P6SM SCT120 BKN200
     FM302100 34012G22KT P6SM VCTS BKN090CB
      TEMPO 3022/3102 VRB15G35KT -TSRA BKN080CB
     FM310300 34014G24KT P6SM VCTS BKN100CB
     FM310900 35010KT P6SM VCSH BKN090=

USA.gov is the U.S. government's official web portal to all federal, state and local government web resources and services.